Overview Statistics Trail Chart Weather Telemetry Raw packets
 

This is the latest recevied weather packets stored in our database for station/object KB4JAC-13. If no packets are shown the sender has not sent any weather packets the latest 10 day(s).

<< 33 34 35 36 37 38 39 >>
Time Temp. Humidity Pressure Rain* Wind** Luminosity Snow
1788056034 23.33° C 96% 994.7 hPa 0 mm - - -
1788055434 23.89° C 96% 994.4 hPa 0 mm - - -
1788054834 23.89° C 95% 994.4 hPa 0 mm - - -
1788054233 24.44° C 94% 994.1 hPa 0 mm - - -
1788053632 24.44° C 93% 994 hPa 0 mm - - -
1788053032 24.44° C 93% 993.9 hPa 0 mm - - -
1788052431 24.44° C 92% 993.5 hPa 0 mm - - -
1788051831 25° C 91% 993.4 hPa 0 mm - - -
1788051230 25° C 90% 993.5 hPa 0 mm - - -
1788050630 25° C 89% 993.1 hPa 0 mm - - -
1788050029 25.56° C 88% 993.2 hPa 0 mm - - -
1788049428 25.56° C 86% 993.1 hPa 0 mm - - -
1788048828 26.11° C 85% 992.9 hPa 0 mm - - -
1788048228 26.67° C 82% 993 hPa 0 mm - - -
1788047627 27.78° C 81% 993 hPa 0 mm - - -
1788047027 28.33° C 78% 993 hPa 0 mm - - -
1788046426 28.89° C 75% 992.9 hPa 0 mm - - -
1788045826 29.44° C 72% 992.9 hPa 0 mm - - -
1788045225 30° C 73% 993.2 hPa 0 mm - - -
1788044625 29.44° C 74% 993 hPa 0 mm - - -
1788044023 28.89° C 76% 993 hPa 0 mm - - -
1788043423 28.89° C 75% 993 hPa 0 mm - - -
1788042822 29.44° C 72% 992.8 hPa 0 mm - - -
1788042222 30° C 71% 992.8 hPa 0 mm - - -
1788041622 30.56° C 69% 992.7 hPa 0 mm - - -

* Rain since midnight (hover to see other rain measurements)
** Current wind speed in m/s (hover to see current wind gust speed)